createdAt,value
2018-06-04T00:02:54.880Z,91.84
2018-06-04T00:05:57.918Z,91.85
2018-06-04T00:09:06.341Z,92.08
2018-06-04T00:12:09.294Z,91.97
2018-06-04T00:15:14.478Z,91.97
2018-06-04T00:18:17.648Z,91.48
2018-06-04T00:21:21.733Z,91.62
2018-06-04T00:24:26.720Z,92.18
2018-06-04T00:27:29.822Z,91.95
2018-06-04T00:30:32.882Z,92.58
2018-06-04T00:33:35.917Z,92.58
2018-06-04T00:36:39.072Z,92.69
2018-06-04T00:39:43.142Z,92.55
2018-06-04T00:42:48.275Z,92.66
2018-06-04T00:45:51.253Z,92.71
2018-06-04T00:48:54.333Z,92.17
2018-06-04T00:51:57.437Z,92.55
2018-06-04T00:55:00.528Z,92.99
2018-06-04T00:58:03.745Z,92.28
2018-06-04T01:01:06.965Z,92.78
2018-06-04T01:04:10.052Z,92.94
2018-06-04T01:07:13.100Z,93.21
2018-06-04T01:10:16.220Z,93.43
2018-06-04T01:13:19.340Z,93.22
2018-06-04T01:16:22.435Z,93.29
2018-06-04T01:19:25.497Z,93.38
2018-06-04T01:22:28.584Z,93.70
2018-06-04T01:25:31.723Z,93.74
2018-06-04T01:28:34.735Z,93.14
2018-06-04T01:31:37.777Z,93.83
2018-06-04T01:34:40.898Z,93.59
2018-06-04T01:37:43.865Z,94.00
2018-06-04T01:40:46.903Z,93.43
2018-06-04T01:43:49.991Z,93.78
2018-06-04T01:46:53.074Z,93.54
2018-06-04T01:49:56.141Z,93.04
2018-06-04T01:52:59.117Z,94.14
2018-06-04T01:56:02.143Z,93.30
2018-06-04T01:59:05.203Z,93.36
2018-06-04T02:02:08.382Z,92.89
2018-06-04T02:05:11.442Z,93.11
2018-06-04T02:08:14.463Z,94.02
2018-06-04T02:11:17.484Z,93.62
2018-06-04T02:14:20.444Z,94.05
2018-06-04T02:17:23.480Z,94.13
2018-06-04T02:20:26.537Z,94.03
2018-06-04T02:23:29.585Z,94.26
2018-06-04T02:26:32.585Z,94.49
2018-06-04T02:29:35.594Z,94.03
2018-06-04T02:32:38.699Z,93.71
2018-06-04T02:35:41.707Z,94.22
2018-06-04T02:38:44.886Z,94.09
2018-06-04T02:41:47.905Z,94.38
2018-06-04T02:44:50.932Z,94.40
2018-06-04T02:47:54.041Z,94.40
2018-06-04T02:50:57.071Z,94.73
2018-06-04T02:54:00.234Z,94.09
2018-06-04T02:57:03.329Z,94.06
2018-06-04T03:00:11.893Z,93.82
2018-06-04T03:03:15.004Z,94.30
2018-06-04T03:06:19.042Z,94.65
2018-06-04T03:09:22.094Z,93.86
2018-06-04T03:12:25.292Z,93.88
2018-06-04T03:15:28.443Z,94.25
2018-06-04T03:18:31.540Z,93.59
2018-06-04T03:21:34.788Z,92.83
2018-06-04T03:24:37.796Z,93.37
2018-06-04T03:27:40.855Z,93.04
2018-06-04T03:30:43.977Z,93.19
2018-06-04T03:33:48.012Z,92.80
2018-06-04T03:36:50.981Z,92.60
2018-06-04T03:39:53.987Z,92.31
2018-06-04T03:43:00.383Z,91.95
2018-06-04T03:46:03.401Z,91.77
2018-06-04T03:49:08.400Z,91.33
2018-06-04T03:52:11.396Z,90.65
2018-06-04T03:55:14.372Z,90.40
2018-06-04T03:58:20.827Z,90.03
2018-06-04T04:01:23.787Z,89.25
2018-06-04T04:04:32.564Z,80.12
2018-06-04T04:07:39.982Z,72.78
2018-06-04T04:10:43.013Z,68.23
2018-06-04T04:13:46.043Z,64.87
2018-06-04T04:16:49.178Z,62.25
2018-06-04T04:19:52.430Z,60.91
2018-06-04T04:22:55.474Z,59.63
2018-06-04T04:25:59.521Z,59.34
2018-06-04T04:29:02.681Z,60.14
2018-06-04T04:32:05.839Z,61.35
2018-06-04T04:35:09.987Z,59.99
2018-06-04T04:38:14.072Z,57.36
2018-06-04T04:41:18.319Z,54.03
2018-06-04T04:44:21.485Z,51.34
2018-06-04T04:47:25.500Z,50.96
2018-06-04T04:50:28.588Z,50.44
2018-06-04T04:53:31.792Z,49.27
2018-06-04T04:56:36.885Z,50.23
2018-06-04T04:59:41.151Z,50.23
2018-06-04T05:02:45.285Z,48.94
2018-06-04T05:05:49.001Z,46.00
2018-06-04T05:08:53.055Z,45.33
2018-06-04T05:11:56.186Z,43.11
2018-06-04T05:15:00.402Z,41.96
2018-06-04T05:18:03.397Z,40.58
2018-06-04T05:21:06.566Z,39.76
2018-06-04T05:24:10.663Z,39.64
2018-06-04T05:27:17.571Z,46.15
2018-06-04T05:30:23.990Z,47.17
2018-06-04T05:33:27.053Z,46.24
2018-06-04T05:36:31.086Z,45.02
2018-06-04T05:39:36.237Z,44.73
2018-06-04T05:42:39.579Z,44.73
2018-06-04T05:45:42.762Z,45.54
2018-06-04T05:48:45.962Z,45.40
2018-06-04T05:51:49.018Z,44.92
2018-06-04T05:54:53.141Z,47.45
2018-06-04T05:57:59.682Z,40.86
2018-06-04T06:01:02.856Z,40.23
2018-06-04T06:04:06.900Z,36.63
2018-06-04T06:07:11.036Z,38.04
2018-06-04T06:10:14.144Z,37.82
2018-06-04T06:13:17.178Z,37.00
2018-06-04T06:16:20.212Z,40.11
2018-06-04T06:19:23.180Z,40.31
2018-06-04T06:22:26.350Z,39.71
2018-06-04T06:25:30.425Z,42.40
2018-06-04T06:28:34.683Z,41.58
2018-06-04T06:31:37.959Z,39.08
2018-06-04T06:34:41.216Z,42.80
2018-06-04T06:37:44.413Z,42.23
2018-06-04T06:40:48.491Z,42.77
2018-06-04T06:43:51.572Z,41.68
2018-06-04T06:46:54.643Z,41.31
2018-06-04T06:49:57.774Z,40.76
2018-06-04T06:53:00.709Z,40.69
2018-06-04T06:56:03.885Z,42.76
2018-06-04T06:59:07.102Z,43.19
2018-06-04T07:02:10.126Z,42.37
2018-06-04T07:05:13.237Z,42.82
2018-06-04T07:08:16.286Z,39.25
2018-06-04T07:11:20.358Z,38.46
2018-06-04T07:14:23.499Z,41.97
2018-06-04T07:17:26.384Z,39.94
2018-06-04T07:20:29.438Z,40.33
2018-06-04T07:23:32.467Z,47.11
2018-06-04T07:26:35.557Z,41.66
2018-06-04T07:29:38.677Z,41.19
2018-06-04T07:32:41.909Z,43.64
2018-06-04T07:35:45.107Z,41.74
2018-06-04T07:38:48.497Z,39.11
2018-06-04T07:41:51.882Z,44.00
2018-06-04T07:44:54.999Z,44.50
2018-06-04T07:47:58.137Z,43.19
2018-06-04T07:51:01.113Z,40.75
2018-06-04T07:54:04.322Z,43.00
2018-06-04T07:57:07.437Z,44.20
2018-06-04T08:00:10.576Z,44.78
2018-06-04T08:03:13.642Z,47.50
2018-06-04T08:06:16.823Z,48.08
2018-06-04T08:09:22.024Z,49.32
2018-06-04T08:12:25.212Z,50.50
2018-06-04T08:15:28.538Z,53.09
2018-06-04T08:18:31.614Z,54.07
2018-06-04T08:21:34.668Z,55.13
2018-06-04T08:24:37.812Z,53.30
2018-06-04T08:27:40.869Z,49.74
2018-06-04T08:30:44.055Z,51.78
2018-06-04T08:33:47.175Z,52.94
2018-06-04T08:36:51.225Z,50.70
2018-06-04T08:39:54.268Z,48.77
2018-06-04T08:42:57.872Z,49.73
2018-06-04T08:46:01.065Z,49.97
2018-06-04T08:49:04.185Z,50.45
2018-06-04T08:52:07.315Z,53.22
2018-06-04T08:55:10.472Z,51.96
2018-06-04T08:58:13.592Z,51.50
2018-06-04T09:01:16.925Z,51.52
2018-06-04T09:04:20.992Z,50.40
2018-06-04T09:07:25.070Z,50.40
2018-06-04T09:10:28.119Z,52.36
2018-06-04T09:13:32.230Z,50.60
2018-06-04T09:16:35.283Z,51.55
2018-06-04T09:19:38.541Z,50.80
2018-06-04T09:22:41.579Z,51.37
2018-06-04T09:25:44.720Z,50.12
2018-06-04T09:28:47.799Z,48.64
2018-06-04T09:31:54.262Z,47.63
2018-06-04T09:34:57.465Z,46.14
2018-06-04T09:38:00.577Z,43.73
2018-06-04T09:41:03.791Z,43.13
2018-06-04T09:44:06.889Z,44.34
2018-06-04T09:47:09.922Z,43.76
2018-06-04T09:50:13.140Z,44.29
2018-06-04T09:53:16.218Z,43.78
2018-06-04T09:56:19.552Z,42.67
2018-06-04T09:59:22.791Z,42.64
2018-06-04T10:02:25.945Z,44.85
2018-06-04T10:05:30.152Z,45.05
2018-06-04T10:08:34.240Z,45.46
2018-06-04T10:11:37.321Z,46.80
2018-06-04T10:14:40.515Z,45.77
2018-06-04T10:17:49.262Z,44.95
2018-06-04T10:20:53.039Z,43.77
2018-06-04T10:23:57.343Z,40.94
2018-06-04T10:27:00.595Z,42.38
2018-06-04T10:30:06.072Z,42.38
2018-06-04T10:33:09.477Z,40.73
2018-06-04T10:36:12.760Z,39.43
2018-06-04T10:39:17.098Z,39.67
2018-06-04T10:42:20.262Z,40.85
2018-06-04T10:45:23.527Z,40.38
2018-06-04T10:48:26.789Z,41.82
2018-06-04T10:51:31.905Z,41.13
2018-06-04T10:54:38.629Z,42.85
2018-06-04T10:58:46.605Z,41.23
2018-06-04T11:01:50.668Z,40.84
2018-06-04T11:05:09.178Z,41.00
2018-06-04T11:08:14.663Z,41.36
2018-06-04T11:11:18.032Z,39.50
2018-06-04T11:14:23.361Z,37.65
2018-06-04T11:17:28.930Z,37.30
2018-06-04T11:20:37.269Z,39.47
2018-06-04T11:23:41.697Z,41.46
2018-06-04T11:26:45.174Z,39.40
2018-06-04T11:29:50.597Z,36.73
2018-06-04T11:33:01.836Z,38.43
2018-06-04T11:36:05.197Z,37.49
2018-06-04T11:39:12.706Z,35.26
2018-06-04T11:42:16.783Z,36.31
2018-06-04T11:45:21.761Z,33.37
2018-06-04T11:48:27.185Z,30.80
2018-06-04T11:51:38.221Z,32.75
2018-06-04T11:54:41.766Z,33.01
2018-06-04T11:57:52.628Z,34.32
2018-06-04T12:00:56.387Z,32.20
2018-06-04T12:04:02.159Z,32.52
2018-06-04T12:07:08.794Z,36.49
2018-06-04T12:10:35.262Z,36.06
2018-06-04T12:13:52.441Z,36.55
2018-06-04T12:16:57.107Z,38.24
2018-06-04T12:20:01.712Z,36.59
2018-06-04T12:23:08.929Z,36.43
2018-06-04T12:26:14.348Z,35.50
2018-06-04T12:29:17.799Z,36.27
2018-06-04T12:32:25.569Z,34.80
2018-06-04T12:35:29.205Z,33.79
2018-06-04T12:38:36.245Z,33.46
2018-06-04T12:41:39.709Z,32.71
2018-06-04T12:44:44.404Z,33.39
2018-06-04T12:47:50.197Z,32.99
2018-06-04T12:50:58.559Z,32.01
2018-06-04T12:54:01.968Z,32.49
2018-06-04T12:57:05.493Z,33.33
2018-06-04T13:00:09.903Z,32.75
2018-06-04T13:03:16.743Z,31.66
2018-06-04T13:06:20.141Z,33.46
2018-06-04T13:09:23.416Z,32.56
2018-06-04T13:12:30.332Z,32.95
2018-06-04T13:15:34.922Z,33.69
2018-06-04T13:18:38.647Z,32.36
2018-06-04T13:21:42.075Z,31.66
2018-06-04T13:24:45.484Z,31.42
2018-06-04T13:27:49.192Z,31.41
2018-06-04T13:30:52.836Z,30.51
2018-06-04T13:33:56.422Z,28.58
2018-06-04T13:37:05.600Z,29.93
2018-06-04T13:40:12.074Z,29.25
2018-06-04T13:43:16.952Z,29.41
2018-06-04T13:46:20.449Z,28.34
2018-06-04T13:49:25.903Z,27.45
2018-06-04T13:52:30.071Z,27.90
2018-06-04T13:55:33.458Z,28.07
2018-06-04T13:58:36.858Z,28.21
2018-06-04T14:01:40.274Z,28.72
2018-06-04T14:04:43.633Z,27.67
2018-06-04T14:07:46.890Z,26.43
2018-06-04T14:10:50.287Z,26.42
2018-06-04T14:13:53.747Z,25.91
2018-06-04T14:16:57.039Z,26.90
2018-06-04T14:20:01.161Z,26.74
2018-06-04T14:23:04.562Z,27.06
2018-06-04T14:26:07.828Z,28.72
2018-06-04T14:29:11.262Z,27.19
2018-06-04T14:32:14.705Z,27.66
2018-06-04T14:35:20.177Z,28.40
2018-06-04T14:38:24.288Z,29.02
2018-06-04T14:41:27.310Z,28.83
2018-06-04T14:44:30.382Z,28.29
2018-06-04T14:47:36.599Z,28.12
2018-06-04T14:50:39.976Z,27.65
2018-06-04T14:53:44.322Z,27.87
2018-06-04T14:56:50.564Z,26.43
2018-06-04T14:59:54.733Z,28.16
2018-06-04T15:02:57.864Z,28.63
2018-06-04T15:06:01.037Z,27.31
2018-06-04T15:09:07.350Z,27.37
2018-06-04T15:12:12.550Z,26.55
2018-06-04T15:15:22.528Z,27.82
2018-06-04T15:18:25.780Z,27.09
2018-06-04T15:21:29.679Z,28.15
2018-06-04T15:24:34.003Z,26.81
2018-06-04T15:27:38.394Z,26.76
2018-06-04T15:30:42.010Z,27.46
2018-06-04T15:33:46.526Z,28.14
2018-06-04T15:36:50.824Z,28.82
2018-06-04T15:39:57.792Z,26.10
2018-06-04T15:43:02.431Z,25.09
2018-06-04T15:46:07.281Z,26.91
2018-06-04T15:49:10.973Z,26.44
2018-06-04T15:52:14.293Z,27.34
2018-06-04T15:55:18.607Z,27.05
2018-06-04T15:58:22.341Z,25.86
2018-06-04T16:01:26.536Z,24.93
2018-06-04T16:04:29.713Z,23.82
2018-06-04T16:07:33.182Z,25.78
2018-06-04T16:10:37.486Z,23.98
2018-06-04T16:13:41.970Z,24.35
2018-06-04T16:16:46.337Z,26.43
2018-06-04T16:19:49.733Z,29.03
2018-06-04T16:22:53.149Z,30.71
2018-06-04T16:25:57.388Z,31.25
2018-06-04T16:29:00.462Z,30.58
2018-06-04T16:32:03.538Z,28.90
2018-06-04T16:35:07.580Z,26.38
2018-06-04T16:38:10.622Z,27.05
2018-06-04T16:41:13.702Z,26.33
2018-06-04T16:44:16.906Z,24.66
2018-06-04T16:47:22.357Z,26.77
2018-06-04T16:50:25.757Z,26.84
2018-06-04T16:53:30.163Z,30.75
2018-06-04T16:56:33.414Z,30.41
2018-06-04T16:59:37.561Z,31.81
2018-06-04T17:02:40.752Z,30.35
2018-06-04T17:05:46.102Z,30.67
2018-06-04T17:08:50.537Z,27.79
2018-06-04T17:11:56.007Z,25.64
2018-06-04T17:15:01.496Z,25.28
2018-06-04T17:18:07.269Z,25.64
2018-06-04T17:21:10.713Z,26.57
2018-06-04T17:24:15.855Z,27.46
2018-06-04T17:27:19.098Z,29.48
2018-06-04T17:30:22.176Z,33.81
2018-06-04T17:33:25.288Z,37.41
2018-06-04T17:36:30.370Z,40.07
2018-06-04T17:39:34.480Z,41.11
2018-06-04T17:42:37.614Z,42.74
2018-06-04T17:45:40.891Z,40.79
2018-06-04T17:48:45.031Z,42.01
2018-06-04T17:51:50.113Z,43.89
2018-06-04T17:54:53.251Z,44.58
2018-06-04T17:57:56.300Z,43.35
2018-06-04T18:00:59.545Z,43.46
2018-06-04T18:04:05.942Z,44.18
2018-06-04T18:07:09.101Z,45.75
2018-06-04T18:10:17.069Z,46.79
2018-06-04T18:13:21.231Z,48.06
2018-06-04T18:16:24.451Z,48.52
2018-06-04T18:19:31.319Z,51.04
2018-06-04T18:22:34.658Z,51.90
2018-06-04T18:25:37.772Z,51.67
2018-06-04T18:28:40.892Z,53.85
2018-06-04T18:31:44.154Z,53.56
2018-06-04T18:34:48.368Z,53.66
2018-06-04T18:37:52.601Z,52.15
2018-06-04T18:40:56.576Z,52.98
2018-06-04T18:44:01.108Z,54.54
2018-06-04T18:47:04.777Z,55.31
2018-06-04T18:50:08.151Z,56.48
2018-06-04T18:53:11.436Z,56.95
2018-06-04T18:56:15.670Z,57.91
2018-06-04T18:59:20.003Z,59.51
2018-06-04T19:02:24.176Z,59.04
2018-06-04T19:05:28.301Z,60.57
2018-06-04T19:08:33.327Z,61.61
2018-06-04T19:11:38.506Z,61.11
2018-06-04T19:14:41.924Z,62.31
2018-06-04T19:17:45.140Z,62.25
2018-06-04T19:20:49.447Z,62.96
2018-06-04T19:23:53.747Z,63.69
2018-06-04T19:26:58.047Z,63.62
2018-06-04T19:30:03.884Z,64.23
2018-06-04T19:33:07.645Z,64.14
2018-06-04T19:36:11.188Z,65.06
2018-06-04T19:39:14.559Z,65.95
2018-06-04T19:42:17.865Z,65.39
2018-06-04T19:45:21.087Z,66.87
2018-06-04T19:48:24.562Z,66.80
2018-06-04T19:51:27.825Z,68.77
2018-06-04T19:54:31.074Z,68.85
2018-06-04T19:57:35.119Z,69.56
2018-06-04T20:00:38.232Z,69.80
2018-06-04T20:03:41.317Z,70.98
2018-06-04T20:06:44.349Z,70.66
2018-06-04T20:09:48.473Z,71.68
2018-06-04T20:12:51.540Z,72.19
2018-06-04T20:15:56.613Z,73.66
2018-06-04T20:18:59.755Z,73.81
2018-06-04T20:22:03.011Z,74.43
2018-06-04T20:25:06.236Z,74.52
2018-06-04T20:28:09.240Z,75.67
2018-06-04T20:31:12.369Z,76.27
2018-06-04T20:34:15.417Z,75.59
2018-06-04T20:37:20.887Z,76.33
2018-06-04T20:40:25.916Z,77.00
2018-06-04T20:43:32.508Z,76.91
2018-06-04T20:57:31.526Z,76.75
2018-06-04T21:00:35.651Z,76.40
2018-06-04T21:03:44.710Z,77.71
2018-06-04T21:06:49.266Z,77.99
2018-06-04T21:09:55.419Z,77.74
2018-06-04T21:13:06.048Z,78.57
2018-06-04T21:16:09.938Z,78.52
2018-06-04T21:19:15.018Z,78.66
2018-06-04T21:22:26.940Z,79.01
2018-06-04T21:25:32.525Z,79.99
2018-06-04T21:28:38.579Z,79.83
2018-06-04T21:31:45.238Z,80.80
2018-06-04T21:34:56.741Z,81.15
2018-06-04T21:38:00.548Z,80.92
2018-06-04T21:41:05.479Z,81.66
2018-06-04T21:44:12.958Z,81.42
2018-06-04T21:47:19.802Z,81.70
2018-06-04T21:50:25.602Z,82.32
2018-06-04T21:53:29.309Z,82.07
2018-06-04T21:56:33.096Z,82.88
2018-06-04T21:59:41.147Z,82.58
2018-06-04T22:02:44.960Z,82.17
2018-06-04T22:05:53.608Z,81.77
2018-06-04T22:08:58.322Z,81.72
2018-06-04T22:12:03.260Z,82.50
2018-06-04T22:15:09.193Z,83.11
2018-06-04T22:18:17.787Z,83.28
2018-06-04T22:21:22.418Z,83.49
2018-06-04T22:24:27.360Z,84.03
2018-06-04T22:27:30.995Z,84.64
2018-06-04T22:30:36.456Z,84.91
2018-06-04T22:33:40.856Z,84.59
2018-06-04T22:36:46.925Z,84.55
2018-06-04T22:39:51.025Z,84.28
2018-06-04T22:42:54.719Z,84.07
2018-06-04T22:46:03.142Z,83.20
2018-06-04T22:49:07.480Z,82.03
2018-06-04T22:52:22.067Z,81.53
2018-06-04T22:55:25.978Z,82.21
2018-06-04T22:58:29.900Z,82.14
2018-06-04T23:01:34.908Z,81.96
2018-06-04T23:04:39.813Z,82.05
2018-06-04T23:07:44.972Z,82.67
2018-06-04T23:10:49.964Z,83.00
2018-06-04T23:13:56.196Z,82.99
2018-06-04T23:17:01.181Z,82.83
2018-06-04T23:20:07.745Z,83.42
2018-06-04T23:23:14.372Z,84.55
2018-06-04T23:26:19.699Z,84.54
2018-06-04T23:29:24.830Z,85.22
2018-06-04T23:32:30.579Z,85.08
2018-06-04T23:35:36.376Z,85.59
2018-06-04T23:38:42.343Z,85.40
2018-06-04T23:41:47.648Z,84.83
2018-06-04T23:44:53.533Z,84.98
2018-06-04T23:48:02.555Z,85.16
2018-06-04T23:51:09.371Z,84.95
2018-06-04T23:54:18.310Z,86.21
2018-06-04T23:57:36.896Z,85.55
